sensor_id;sensor_type;location;lat;lon;timestamp;temperature;humidity
18297;DHT22;18066;52.106;5.534;2023-04-25T00:01:57;7.40;99.90
18297;DHT22;18066;52.106;5.534;2023-04-25T00:04:25;7.40;99.90
18297;DHT22;18066;52.106;5.534;2023-04-25T00:06:52;7.40;99.90
18297;DHT22;18066;52.106;5.534;2023-04-25T00:09:19;7.40;99.90
18297;DHT22;18066;52.106;5.534;2023-04-25T00:11:46;7.30;99.90
18297;DHT22;18066;52.106;5.534;2023-04-25T00:14:13;7.30;99.90
18297;DHT22;18066;52.106;5.534;2023-04-25T00:16:40;7.30;99.90
18297;DHT22;18066;52.106;5.534;2023-04-25T00:19:10;7.30;99.90
18297;DHT22;18066;52.106;5.534;2023-04-25T00:21:38;7.20;99.90
18297;DHT22;18066;52.106;5.534;2023-04-25T00:24:06;7.10;99.90
18297;DHT22;18066;52.106;5.534;2023-04-25T00:26:33;7.00;99.90
18297;DHT22;18066;52.106;5.534;2023-04-25T00:29:00;7.00;99.90
18297;DHT22;18066;52.106;5.534;2023-04-25T00:31:27;7.00;99.90
18297;DHT22;18066;52.106;5.534;2023-04-25T00:33:55;6.90;99.90
18297;DHT22;18066;52.106;5.534;2023-04-25T00:36:23;6.90;99.90
18297;DHT22;18066;52.106;5.534;2023-04-25T00:38:50;6.80;99.90
18297;DHT22;18066;52.106;5.534;2023-04-25T00:41:17;6.80;99.90
18297;DHT22;18066;52.106;5.534;2023-04-25T00:43:44;6.70;99.90
18297;DHT22;18066;52.106;5.534;2023-04-25T00:46:12;6.70;99.90
18297;DHT22;18066;52.106;5.534;2023-04-25T00:48:39;6.70;99.90
18297;DHT22;18066;52.106;5.534;2023-04-25T00:51:05;6.70;99.90
18297;DHT22;18066;52.106;5.534;2023-04-25T00:53:34;6.70;99.90
18297;DHT22;18066;52.106;5.534;2023-04-25T00:56:02;6.70;99.90
18297;DHT22;18066;52.106;5.534;2023-04-25T00:58:29;6.80;99.90
18297;DHT22;18066;52.106;5.534;2023-04-25T01:00:56;6.80;99.90
18297;DHT22;18066;52.106;5.534;2023-04-25T01:03:24;6.80;99.90
18297;DHT22;18066;52.106;5.534;2023-04-25T01:05:51;6.80;99.90
18297;DHT22;18066;52.106;5.534;2023-04-25T01:08:18;6.70;99.90
18297;DHT22;18066;52.106;5.534;2023-04-25T01:10:48;6.70;99.90
18297;DHT22;18066;52.106;5.534;2023-04-25T01:13:15;6.70;99.90
18297;DHT22;18066;52.106;5.534;2023-04-25T01:15:42;6.70;99.90
18297;DHT22;18066;52.106;5.534;2023-04-25T01:18:09;6.70;99.90
18297;DHT22;18066;52.106;5.534;2023-04-25T01:20:37;6.80;99.90
18297;DHT22;18066;52.106;5.534;2023-04-25T01:23:06;6.80;99.90
18297;DHT22;18066;52.106;5.534;2023-04-25T01:25:33;6.80;99.90
18297;DHT22;18066;52.106;5.534;2023-04-25T01:28:00;6.90;99.90
18297;DHT22;18066;52.106;5.534;2023-04-25T01:30:27;6.80;99.90
18297;DHT22;18066;52.106;5.534;2023-04-25T01:32:55;6.80;99.90
18297;DHT22;18066;52.106;5.534;2023-04-25T01:35:22;6.80;99.90
18297;DHT22;18066;52.106;5.534;2023-04-25T01:37:51;6.80;99.90
18297;DHT22;18066;52.106;5.534;2023-04-25T01:40:20;6.70;99.90
18297;DHT22;18066;52.106;5.534;2023-04-25T01:42:48;6.70;99.90
18297;DHT22;18066;52.106;5.534;2023-04-25T01:45:15;6.60;99.90
18297;DHT22;18066;52.106;5.534;2023-04-25T01:47:41;6.50;99.90
18297;DHT22;18066;52.106;5.534;2023-04-25T01:50:12;6.60;99.90
18297;DHT22;18066;52.106;5.534;2023-04-25T01:52:39;6.60;99.90
18297;DHT22;18066;52.106;5.534;2023-04-25T01:55:06;6.60;99.90
18297;DHT22;18066;52.106;5.534;2023-04-25T01:57:35;6.60;99.90
18297;DHT22;18066;52.106;5.534;2023-04-25T02:00:04;6.50;99.90
18297;DHT22;18066;52.106;5.534;2023-04-25T02:02:32;6.40;99.90
18297;DHT22;18066;52.106;5.534;2023-04-25T02:04:58;6.40;99.90
18297;DHT22;18066;52.106;5.534;2023-04-25T02:07:26;6.30;99.90
18297;DHT22;18066;52.106;5.534;2023-04-25T02:09:53;6.20;99.90
18297;DHT22;18066;52.106;5.534;2023-04-25T02:12:20;6.20;99.90
18297;DHT22;18066;52.106;5.534;2023-04-25T02:14:48;6.10;99.90
18297;DHT22;18066;52.106;5.534;2023-04-25T02:17:15;6.10;99.90
18297;DHT22;18066;52.106;5.534;2023-04-25T02:19:43;6.00;99.90
18297;DHT22;18066;52.106;5.534;2023-04-25T02:22:10;6.00;99.90
18297;DHT22;18066;52.106;5.534;2023-04-25T02:24:37;6.00;99.90
18297;DHT22;18066;52.106;5.534;2023-04-25T02:27:04;6.00;99.90
18297;DHT22;18066;52.106;5.534;2023-04-25T02:29:31;6.00;99.90
18297;DHT22;18066;52.106;5.534;2023-04-25T02:31:59;5.90;99.90
18297;DHT22;18066;52.106;5.534;2023-04-25T02:34:25;5.90;99.90
18297;DHT22;18066;52.106;5.534;2023-04-25T02:36:52;5.90;99.90
18297;DHT22;18066;52.106;5.534;2023-04-25T02:39:19;5.80;99.90
18297;DHT22;18066;52.106;5.534;2023-04-25T02:41:47;5.80;99.90
18297;DHT22;18066;52.106;5.534;2023-04-25T02:44:14;5.80;99.90
18297;DHT22;18066;52.106;5.534;2023-04-25T02:46:41;5.80;99.90
18297;DHT22;18066;52.106;5.534;2023-04-25T02:49:09;5.80;99.90
18297;DHT22;18066;52.106;5.534;2023-04-25T02:51:36;5.70;99.90
18297;DHT22;18066;52.106;5.534;2023-04-25T02:54:03;5.60;99.90
18297;DHT22;18066;52.106;5.534;2023-04-25T02:56:30;5.60;99.90
18297;DHT22;18066;52.106;5.534;2023-04-25T02:58:57;5.60;99.90
18297;DHT22;18066;52.106;5.534;2023-04-25T03:01:24;5.60;99.90
18297;DHT22;18066;52.106;5.534;2023-04-25T03:03:50;5.60;99.90
18297;DHT22;18066;52.106;5.534;2023-04-25T03:06:19;5.60;99.90
18297;DHT22;18066;52.106;5.534;2023-04-25T03:08:45;5.60;99.90
18297;DHT22;18066;52.106;5.534;2023-04-25T03:11:12;5.70;99.90
18297;DHT22;18066;52.106;5.534;2023-04-25T03:13:39;5.70;99.90
18297;DHT22;18066;52.106;5.534;2023-04-25T03:16:06;5.70;99.90
18297;DHT22;18066;52.106;5.534;2023-04-25T03:18:33;5.70;99.90
18297;DHT22;18066;52.106;5.534;2023-04-25T03:20:59;5.60;99.90
18297;DHT22;18066;52.106;5.534;2023-04-25T03:23:28;5.50;99.90
18297;DHT22;18066;52.106;5.534;2023-04-25T03:25:54;5.50;99.90
18297;DHT22;18066;52.106;5.534;2023-04-25T03:28:22;5.50;99.90
18297;DHT22;18066;52.106;5.534;2023-04-25T03:30:49;5.50;99.90
18297;DHT22;18066;52.106;5.534;2023-04-25T03:33:15;5.60;99.90
18297;DHT22;18066;52.106;5.534;2023-04-25T03:35:42;5.50;99.90
18297;DHT22;18066;52.106;5.534;2023-04-25T03:38:09;5.40;99.90
18297;DHT22;18066;52.106;5.534;2023-04-25T03:40:37;5.40;99.90
18297;DHT22;18066;52.106;5.534;2023-04-25T03:43:04;5.30;99.90
18297;DHT22;18066;52.106;5.534;2023-04-25T03:45:31;5.30;99.90
18297;DHT22;18066;52.106;5.534;2023-04-25T03:47:58;5.30;99.90
18297;DHT22;18066;52.106;5.534;2023-04-25T03:50:24;5.30;99.90
18297;DHT22;18066;52.106;5.534;2023-04-25T03:52:51;5.40;99.90
18297;DHT22;18066;52.106;5.534;2023-04-25T03:55:18;5.50;99.90
18297;DHT22;18066;52.106;5.534;2023-04-25T03:57:46;5.50;99.90
18297;DHT22;18066;52.106;5.534;2023-04-25T04:00:14;5.60;99.90
18297;DHT22;18066;52.106;5.534;2023-04-25T04:02:41;5.70;99.90
18297;DHT22;18066;52.106;5.534;2023-04-25T04:05:08;5.70;99.90
18297;DHT22;18066;52.106;5.534;2023-04-25T04:07:35;5.70;99.90
18297;DHT22;18066;52.106;5.534;2023-04-25T04:10:06;5.70;99.90
18297;DHT22;18066;52.106;5.534;2023-04-25T04:12:33;5.70;99.90
18297;DHT22;18066;52.106;5.534;2023-04-25T04:15:01;5.80;99.90
18297;DHT22;18066;52.106;5.534;2023-04-25T04:17:29;5.80;99.90
18297;DHT22;18066;52.106;5.534;2023-04-25T04:19:56;5.80;99.90
18297;DHT22;18066;52.106;5.534;2023-04-25T04:22:23;5.80;99.90
18297;DHT22;18066;52.106;5.534;2023-04-25T04:24:50;5.80;99.90
18297;DHT22;18066;52.106;5.534;2023-04-25T04:27:17;5.90;99.90
18297;DHT22;18066;52.106;5.534;2023-04-25T04:29:44;5.90;99.90
18297;DHT22;18066;52.106;5.534;2023-04-25T04:32:13;5.90;99.90
18297;DHT22;18066;52.106;5.534;2023-04-25T04:34:40;6.00;99.90
18297;DHT22;18066;52.106;5.534;2023-04-25T04:37:07;6.00;99.90
18297;DHT22;18066;52.106;5.534;2023-04-25T04:39:35;6.00;99.90
18297;DHT22;18066;52.106;5.534;2023-04-25T04:42:02;6.10;99.90
18297;DHT22;18066;52.106;5.534;2023-04-25T04:44:30;6.20;99.90
18297;DHT22;18066;52.106;5.534;2023-04-25T04:46:59;6.20;99.90
18297;DHT22;18066;52.106;5.534;2023-04-25T04:49:28;6.20;99.90
18297;DHT22;18066;52.106;5.534;2023-04-25T04:51:55;6.30;99.90
18297;DHT22;18066;52.106;5.534;2023-04-25T04:54:22;6.40;99.90
18297;DHT22;18066;52.106;5.534;2023-04-25T04:56:49;6.40;99.90
18297;DHT22;18066;52.106;5.534;2023-04-25T04:59:15;6.40;99.90
18297;DHT22;18066;52.106;5.534;2023-04-25T05:01:42;6.40;99.90
18297;DHT22;18066;52.106;5.534;2023-04-25T05:04:09;6.50;99.90
18297;DHT22;18066;52.106;5.534;2023-04-25T05:06:37;6.50;99.90
18297;DHT22;18066;52.106;5.534;2023-04-25T05:09:04;6.50;99.90
18297;DHT22;18066;52.106;5.534;2023-04-25T05:11:31;6.50;99.90
18297;DHT22;18066;52.106;5.534;2023-04-25T05:13:57;6.50;99.90
18297;DHT22;18066;52.106;5.534;2023-04-25T05:16:24;6.60;99.90
18297;DHT22;18066;52.106;5.534;2023-04-25T05:18:51;6.60;99.90
18297;DHT22;18066;52.106;5.534;2023-04-25T05:21:18;6.70;99.90
18297;DHT22;18066;52.106;5.534;2023-04-25T05:23:47;6.70;99.90
18297;DHT22;18066;52.106;5.534;2023-04-25T05:26:14;6.80;99.90
18297;DHT22;18066;52.106;5.534;2023-04-25T05:28:41;6.80;99.90
18297;DHT22;18066;52.106;5.534;2023-04-25T05:31:09;6.90;99.90
18297;DHT22;18066;52.106;5.534;2023-04-25T05:33:36;6.90;99.90
18297;DHT22;18066;52.106;5.534;2023-04-25T05:36:03;7.00;99.90
18297;DHT22;18066;52.106;5.534;2023-04-25T05:38:30;7.00;99.90
18297;DHT22;18066;52.106;5.534;2023-04-25T05:40:58;7.00;99.90
18297;DHT22;18066;52.106;5.534;2023-04-25T05:43:25;7.10;99.90
18297;DHT22;18066;52.106;5.534;2023-04-25T05:45:52;7.10;99.90
18297;DHT22;18066;52.106;5.534;2023-04-25T05:48:19;7.10;99.90
18297;DHT22;18066;52.106;5.534;2023-04-25T05:50:46;7.20;99.90
18297;DHT22;18066;52.106;5.534;2023-04-25T05:53:12;7.20;99.90
18297;DHT22;18066;52.106;5.534;2023-04-25T05:55:39;7.10;99.90
18297;DHT22;18066;52.106;5.534;2023-04-25T05:58:07;7.20;99.90
18297;DHT22;18066;52.106;5.534;2023-04-25T06:00:34;7.30;99.90
18297;DHT22;18066;52.106;5.534;2023-04-25T06:03:01;7.40;99.90
18297;DHT22;18066;52.106;5.534;2023-04-25T06:05:28;7.50;99.90
18297;DHT22;18066;52.106;5.534;2023-04-25T06:07:55;7.60;99.90
18297;DHT22;18066;52.106;5.534;2023-04-25T06:10:22;7.60;99.90
18297;DHT22;18066;52.106;5.534;2023-04-25T06:12:49;7.70;99.90
18297;DHT22;18066;52.106;5.534;2023-04-25T06:15:17;7.70;99.90
18297;DHT22;18066;52.106;5.534;2023-04-25T06:17:44;7.70;99.90
18297;DHT22;18066;52.106;5.534;2023-04-25T06:20:11;7.80;99.90
18297;DHT22;18066;52.106;5.534;2023-04-25T06:22:38;7.80;99.90
18297;DHT22;18066;52.106;5.534;2023-04-25T06:25:05;7.80;99.90
18297;DHT22;18066;52.106;5.534;2023-04-25T06:27:32;7.80;99.90
18297;DHT22;18066;52.106;5.534;2023-04-25T06:29:59;7.80;99.90
18297;DHT22;18066;52.106;5.534;2023-04-25T06:32:27;7.90;99.90
18297;DHT22;18066;52.106;5.534;2023-04-25T06:34:55;8.00;99.90
18297;DHT22;18066;52.106;5.534;2023-04-25T06:37:22;8.10;99.90
18297;DHT22;18066;52.106;5.534;2023-04-25T06:39:48;8.20;99.90
18297;DHT22;18066;52.106;5.534;2023-04-25T06:42:15;8.20;99.90
18297;DHT22;18066;52.106;5.534;2023-04-25T06:44:42;8.20;99.90
18297;DHT22;18066;52.106;5.534;2023-04-25T06:47:09;8.30;99.90
18297;DHT22;18066;52.106;5.534;2023-04-25T06:49:37;8.30;99.90
18297;DHT22;18066;52.106;5.534;2023-04-25T06:52:04;8.40;99.90
18297;DHT22;18066;52.106;5.534;2023-04-25T06:54:30;8.50;99.90
18297;DHT22;18066;52.106;5.534;2023-04-25T06:56:57;8.50;99.90
18297;DHT22;18066;52.106;5.534;2023-04-25T06:59:26;8.60;99.90
18297;DHT22;18066;52.106;5.534;2023-04-25T07:01:53;8.70;99.90
18297;DHT22;18066;52.106;5.534;2023-04-25T07:04:19;8.60;99.90
18297;DHT22;18066;52.106;5.534;2023-04-25T07:06:48;8.60;99.90
18297;DHT22;18066;52.106;5.534;2023-04-25T07:09:15;8.60;99.90
18297;DHT22;18066;52.106;5.534;2023-04-25T07:11:42;8.60;99.90
18297;DHT22;18066;52.106;5.534;2023-04-25T07:14:08;8.80;99.90
18297;DHT22;18066;52.106;5.534;2023-04-25T07:16:35;9.00;99.90
18297;DHT22;18066;52.106;5.534;2023-04-25T07:19:02;9.10;99.90
18297;DHT22;18066;52.106;5.534;2023-04-25T07:21:29;9.10;99.90
18297;DHT22;18066;52.106;5.534;2023-04-25T07:23:58;9.10;99.90
18297;DHT22;18066;52.106;5.534;2023-04-25T07:26:25;9.10;99.90
18297;DHT22;18066;52.106;5.534;2023-04-25T07:28:52;9.10;99.90
18297;DHT22;18066;52.106;5.534;2023-04-25T07:31:20;9.10;99.90
18297;DHT22;18066;52.106;5.534;2023-04-25T07:33:47;9.40;99.90
18297;DHT22;18066;52.106;5.534;2023-04-25T07:36:13;9.50;99.90
18297;DHT22;18066;52.106;5.534;2023-04-25T07:38:41;9.90;99.90
18297;DHT22;18066;52.106;5.534;2023-04-25T07:41:09;10.30;99.90
18297;DHT22;18066;52.106;5.534;2023-04-25T07:43:36;10.40;99.90
18297;DHT22;18066;52.106;5.534;2023-04-25T07:46:03;10.50;99.90
18297;DHT22;18066;52.106;5.534;2023-04-25T07:48:30;10.40;99.90
18297;DHT22;18066;52.106;5.534;2023-04-25T07:50:57;10.30;99.90
18297;DHT22;18066;52.106;5.534;2023-04-25T07:53:24;10.00;99.90
18297;DHT22;18066;52.106;5.534;2023-04-25T07:55:51;9.80;99.90
18297;DHT22;18066;52.106;5.534;2023-04-25T07:58:19;9.60;99.90
18297;DHT22;18066;52.106;5.534;2023-04-25T08:00:47;9.60;99.90
18297;DHT22;18066;52.106;5.534;2023-04-25T08:03:14;9.60;99.90
18297;DHT22;18066;52.106;5.534;2023-04-25T08:05:41;9.50;99.90
18297;DHT22;18066;52.106;5.534;2023-04-25T08:08:07;9.40;99.90
18297;DHT22;18066;52.106;5.534;2023-04-25T08:10:34;9.20;99.90
18297;DHT22;18066;52.106;5.534;2023-04-25T08:13:01;9.20;99.90
18297;DHT22;18066;52.106;5.534;2023-04-25T08:15:29;9.30;99.90
18297;DHT22;18066;52.106;5.534;2023-04-25T08:17:56;9.70;99.90
18297;DHT22;18066;52.106;5.534;2023-04-25T08:20:23;10.10;99.90
18297;DHT22;18066;52.106;5.534;2023-04-25T08:22:50;10.30;99.90
18297;DHT22;18066;52.106;5.534;2023-04-25T08:25:17;10.30;99.90
18297;DHT22;18066;52.106;5.534;2023-04-25T08:27:44;10.30;99.90
18297;DHT22;18066;52.106;5.534;2023-04-25T08:30:11;10.20;99.90
18297;DHT22;18066;52.106;5.534;2023-04-25T08:32:39;10.30;99.90
18297;DHT22;18066;52.106;5.534;2023-04-25T08:35:07;10.30;99.90
18297;DHT22;18066;52.106;5.534;2023-04-25T08:37:34;9.90;99.90
18297;DHT22;18066;52.106;5.534;2023-04-25T08:40:02;9.50;99.90
18297;DHT22;18066;52.106;5.534;2023-04-25T08:42:33;9.20;99.90
18297;DHT22;18066;52.106;5.534;2023-04-25T08:45:01;9.00;99.90
18297;DHT22;18066;52.106;5.534;2023-04-25T08:47:30;9.10;99.90
18297;DHT22;18066;52.106;5.534;2023-04-25T08:50:02;9.20;99.90
18297;DHT22;18066;52.106;5.534;2023-04-25T08:52:36;9.40;99.90
18297;DHT22;18066;52.106;5.534;2023-04-25T08:55:05;9.50;99.90
18297;DHT22;18066;52.106;5.534;2023-04-25T08:57:33;9.40;99.90
18297;DHT22;18066;52.106;5.534;2023-04-25T09:00:01;9.70;99.90
18297;DHT22;18066;52.106;5.534;2023-04-25T09:02:29;9.70;99.90
18297;DHT22;18066;52.106;5.534;2023-04-25T09:04:56;9.60;99.90
18297;DHT22;18066;52.106;5.534;2023-04-25T09:07:24;9.60;99.90
18297;DHT22;18066;52.106;5.534;2023-04-25T09:09:51;9.60;99.90
18297;DHT22;18066;52.106;5.534;2023-04-25T09:12:18;9.60;99.90
18297;DHT22;18066;52.106;5.534;2023-04-25T09:15:03;9.80;99.90
18297;DHT22;18066;52.106;5.534;2023-04-25T09:17:30;9.90;99.90
18297;DHT22;18066;52.106;5.534;2023-04-25T09:20:06;10.10;99.90
18297;DHT22;18066;52.106;5.534;2023-04-25T09:22:35;10.10;99.90
18297;DHT22;18066;52.106;5.534;2023-04-25T09:25:03;10.20;99.90
18297;DHT22;18066;52.106;5.534;2023-04-25T09:27:32;10.20;99.90
18297;DHT22;18066;52.106;5.534;2023-04-25T09:29:59;10.20;99.90
18297;DHT22;18066;52.106;5.534;2023-04-25T09:32:26;10.30;99.90
18297;DHT22;18066;52.106;5.534;2023-04-25T09:34:55;10.00;99.90
18297;DHT22;18066;52.106;5.534;2023-04-25T09:37:23;10.40;99.90
18297;DHT22;18066;52.106;5.534;2023-04-25T09:39:53;10.80;99.90
18297;DHT22;18066;52.106;5.534;2023-04-25T09:42:22;11.00;99.90
18297;DHT22;18066;52.106;5.534;2023-04-25T09:44:51;10.90;99.90
18297;DHT22;18066;52.106;5.534;2023-04-25T09:47:19;10.50;99.90
18297;DHT22;18066;52.106;5.534;2023-04-25T09:49:47;10.70;99.90
18297;DHT22;18066;52.106;5.534;2023-04-25T09:52:15;10.30;99.90
18297;DHT22;18066;52.106;5.534;2023-04-25T09:54:42;10.30;99.90
18297;DHT22;18066;52.106;5.534;2023-04-25T09:57:14;10.10;99.90
18297;DHT22;18066;52.106;5.534;2023-04-25T09:59:45;9.80;99.90
18297;DHT22;18066;52.106;5.534;2023-04-25T10:02:13;9.30;99.90
18297;DHT22;18066;52.106;5.534;2023-04-25T10:04:41;9.30;99.90
18297;DHT22;18066;52.106;5.534;2023-04-25T10:07:08;8.80;99.90
18297;DHT22;18066;52.106;5.534;2023-04-25T10:09:37;8.80;99.90
18297;DHT22;18066;52.106;5.534;2023-04-25T10:12:05;9.00;99.90
18297;DHT22;18066;52.106;5.534;2023-04-25T10:14:34;9.10;99.90
18297;DHT22;18066;52.106;5.534;2023-04-25T10:17:01;9.40;99.90
18297;DHT22;18066;52.106;5.534;2023-04-25T10:19:28;9.50;99.90
18297;DHT22;18066;52.106;5.534;2023-04-25T10:22:08;9.60;99.90
18297;DHT22;18066;52.106;5.534;2023-04-25T10:24:35;9.80;99.90
18297;DHT22;18066;52.106;5.534;2023-04-25T10:27:03;9.80;99.90
18297;DHT22;18066;52.106;5.534;2023-04-25T10:29:30;10.10;99.90
18297;DHT22;18066;52.106;5.534;2023-04-25T10:31:59;10.30;99.90
18297;DHT22;18066;52.106;5.534;2023-04-25T10:34:38;10.60;99.90
18297;DHT22;18066;52.106;5.534;2023-04-25T10:37:08;10.60;99.90
18297;DHT22;18066;52.106;5.534;2023-04-25T10:39:35;10.60;99.90
18297;DHT22;18066;52.106;5.534;2023-04-25T10:42:04;10.70;99.90
18297;DHT22;18066;52.106;5.534;2023-04-25T10:44:33;10.90;99.90
18297;DHT22;18066;52.106;5.534;2023-04-25T10:47:02;11.10;99.90
18297;DHT22;18066;52.106;5.534;2023-04-25T10:49:32;10.90;99.90
18297;DHT22;18066;52.106;5.534;2023-04-25T10:52:13;11.00;99.90
18297;DHT22;18066;52.106;5.534;2023-04-25T10:54:41;11.20;99.90
18297;DHT22;18066;52.106;5.534;2023-04-25T10:57:27;11.20;99.90
18297;DHT22;18066;52.106;5.534;2023-04-25T10:59:58;11.20;99.90
18297;DHT22;18066;52.106;5.534;2023-04-25T11:02:28;10.70;99.90
18297;DHT22;18066;52.106;5.534;2023-04-25T11:04:55;10.60;99.90
18297;DHT22;18066;52.106;5.534;2023-04-25T11:07:28;10.50;99.90
18297;DHT22;18066;52.106;5.534;2023-04-25T11:09:57;10.60;99.90
18297;DHT22;18066;52.106;5.534;2023-04-25T11:12:27;10.70;99.90
18297;DHT22;18066;52.106;5.534;2023-04-25T11:14:59;10.80;99.90
18297;DHT22;18066;52.106;5.534;2023-04-25T11:17:28;11.10;99.90
18297;DHT22;18066;52.106;5.534;2023-04-25T11:19:55;11.50;99.90
18297;DHT22;18066;52.106;5.534;2023-04-25T11:22:22;11.90;99.90
18297;DHT22;18066;52.106;5.534;2023-04-25T11:24:49;11.70;99.90
18297;DHT22;18066;52.106;5.534;2023-04-25T11:27:17;11.20;99.90
18297;DHT22;18066;52.106;5.534;2023-04-25T11:29:44;9.80;99.90
18297;DHT22;18066;52.106;5.534;2023-04-25T11:32:14;9.30;99.90
18297;DHT22;18066;52.106;5.534;2023-04-25T11:34:44;9.00;99.90
18297;DHT22;18066;52.106;5.534;2023-04-25T11:37:11;8.40;99.90
18297;DHT22;18066;52.106;5.534;2023-04-25T11:39:43;8.00;99.90
18297;DHT22;18066;52.106;5.534;2023-04-25T11:42:10;7.80;99.90
18297;DHT22;18066;52.106;5.534;2023-04-25T11:44:38;7.80;99.90
18297;DHT22;18066;52.106;5.534;2023-04-25T11:47:05;7.90;99.90
18297;DHT22;18066;52.106;5.534;2023-04-25T11:49:32;8.20;99.90
18297;DHT22;18066;52.106;5.534;2023-04-25T11:52:00;8.40;99.90
18297;DHT22;18066;52.106;5.534;2023-04-25T11:54:26;8.60;99.90
18297;DHT22;18066;52.106;5.534;2023-04-25T11:56:53;8.80;99.90
18297;DHT22;18066;52.106;5.534;2023-04-25T11:59:23;8.90;99.90
18297;DHT22;18066;52.106;5.534;2023-04-25T12:01:50;9.20;99.90
18297;DHT22;18066;52.106;5.534;2023-04-25T12:04:19;9.30;99.90
18297;DHT22;18066;52.106;5.534;2023-04-25T12:06:47;9.50;99.90
18297;DHT22;18066;52.106;5.534;2023-04-25T12:09:17;9.70;99.90
18297;DHT22;18066;52.106;5.534;2023-04-25T12:11:45;9.80;99.90
18297;DHT22;18066;52.106;5.534;2023-04-25T12:14:20;9.90;99.90
18297;DHT22;18066;52.106;5.534;2023-04-25T12:16:49;9.90;99.90
18297;DHT22;18066;52.106;5.534;2023-04-25T12:19:17;10.10;99.90
18297;DHT22;18066;52.106;5.534;2023-04-25T12:21:44;10.30;99.90
18297;DHT22;18066;52.106;5.534;2023-04-25T12:24:12;10.30;99.90
18297;DHT22;18066;52.106;5.534;2023-04-25T12:26:48;10.50;99.90
18297;DHT22;18066;52.106;5.534;2023-04-25T12:29:16;10.80;99.90
18297;DHT22;18066;52.106;5.534;2023-04-25T12:31:43;10.90;99.90
18297;DHT22;18066;52.106;5.534;2023-04-25T12:34:10;10.90;99.90
18297;DHT22;18066;52.106;5.534;2023-04-25T12:36:37;10.70;99.90
18297;DHT22;18066;52.106;5.534;2023-04-25T12:39:04;10.60;99.90
18297;DHT22;18066;52.106;5.534;2023-04-25T12:41:31;10.80;99.90
18297;DHT22;18066;52.106;5.534;2023-04-25T12:43:59;10.70;99.90
18297;DHT22;18066;52.106;5.534;2023-04-25T12:46:25;10.60;99.90
18297;DHT22;18066;52.106;5.534;2023-04-25T12:48:53;10.50;99.90
18297;DHT22;18066;52.106;5.534;2023-04-25T12:51:20;10.40;99.90
18297;DHT22;18066;52.106;5.534;2023-04-25T12:53:50;10.60;99.90
18297;DHT22;18066;52.106;5.534;2023-04-25T12:56:17;10.80;99.90
18297;DHT22;18066;52.106;5.534;2023-04-25T12:58:44;10.80;99.90
18297;DHT22;18066;52.106;5.534;2023-04-25T13:01:13;11.00;99.90
18297;DHT22;18066;52.106;5.534;2023-04-25T13:03:40;11.30;99.90
18297;DHT22;18066;52.106;5.534;2023-04-25T13:06:07;11.40;99.90
18297;DHT22;18066;52.106;5.534;2023-04-25T13:08:34;11.60;99.90
18297;DHT22;18066;52.106;5.534;2023-04-25T13:11:02;11.50;99.90
18297;DHT22;18066;52.106;5.534;2023-04-25T13:13:29;11.70;99.90
18297;DHT22;18066;52.106;5.534;2023-04-25T13:15:57;11.90;99.90
18297;DHT22;18066;52.106;5.534;2023-04-25T13:18:25;11.80;99.90
18297;DHT22;18066;52.106;5.534;2023-04-25T13:20:52;11.60;99.90
18297;DHT22;18066;52.106;5.534;2023-04-25T13:23:19;11.60;99.90
18297;DHT22;18066;52.106;5.534;2023-04-25T13:25:46;11.90;99.90
18297;DHT22;18066;52.106;5.534;2023-04-25T13:28:13;11.90;99.90
18297;DHT22;18066;52.106;5.534;2023-04-25T13:30:41;11.80;99.90
18297;DHT22;18066;52.106;5.534;2023-04-25T13:33:07;11.40;99.90
18297;DHT22;18066;52.106;5.534;2023-04-25T13:35:37;10.90;99.90
18297;DHT22;18066;52.106;5.534;2023-04-25T13:38:04;10.90;99.90
18297;DHT22;18066;52.106;5.534;2023-04-25T13:40:31;11.20;99.90
18297;DHT22;18066;52.106;5.534;2023-04-25T13:42:59;11.20;99.90
18297;DHT22;18066;52.106;5.534;2023-04-25T13:45:25;11.20;99.90
18297;DHT22;18066;52.106;5.534;2023-04-25T13:47:52;11.50;99.90
18297;DHT22;18066;52.106;5.534;2023-04-25T13:50:19;11.50;99.90
18297;DHT22;18066;52.106;5.534;2023-04-25T13:52:47;11.30;99.90
18297;DHT22;18066;52.106;5.534;2023-04-25T13:55:14;11.10;99.90
18297;DHT22;18066;52.106;5.534;2023-04-25T13:57:41;11.30;99.90
18297;DHT22;18066;52.106;5.534;2023-04-25T14:00:08;11.40;99.90
18297;DHT22;18066;52.106;5.534;2023-04-25T14:02:36;11.40;99.90
18297;DHT22;18066;52.106;5.534;2023-04-25T14:05:03;11.50;99.90
18297;DHT22;18066;52.106;5.534;2023-04-25T14:07:30;11.80;99.90
18297;DHT22;18066;52.106;5.534;2023-04-25T14:09:59;12.10;99.90
18297;DHT22;18066;52.106;5.534;2023-04-25T14:12:25;12.20;99.90
18297;DHT22;18066;52.106;5.534;2023-04-25T14:14:52;11.80;99.90
18297;DHT22;18066;52.106;5.534;2023-04-25T14:17:19;11.60;99.90
18297;DHT22;18066;52.106;5.534;2023-04-25T14:19:46;11.50;99.90
18297;DHT22;18066;52.106;5.534;2023-04-25T14:22:13;11.30;99.90
18297;DHT22;18066;52.106;5.534;2023-04-25T14:24:40;11.30;99.90
18297;DHT22;18066;52.106;5.534;2023-04-25T14:27:09;11.40;99.90
18297;DHT22;18066;52.106;5.534;2023-04-25T14:29:35;11.50;99.90
18297;DHT22;18066;52.106;5.534;2023-04-25T14:32:02;11.70;99.90
18297;DHT22;18066;52.106;5.534;2023-04-25T14:34:30;12.00;99.90
18297;DHT22;18066;52.106;5.534;2023-04-25T14:36:57;12.30;99.90
18297;DHT22;18066;52.106;5.534;2023-04-25T14:39:24;12.70;99.90
18297;DHT22;18066;52.106;5.534;2023-04-25T14:41:51;12.80;99.90
18297;DHT22;18066;52.106;5.534;2023-04-25T14:44:19;12.10;99.90
18297;DHT22;18066;52.106;5.534;2023-04-25T14:46:45;11.60;99.90
18297;DHT22;18066;52.106;5.534;2023-04-25T14:49:13;11.90;99.90
18297;DHT22;18066;52.106;5.534;2023-04-25T14:51:40;12.70;99.90
18297;DHT22;18066;52.106;5.534;2023-04-25T14:54:06;14.40;99.90
18297;DHT22;18066;52.106;5.534;2023-04-25T14:56:33;15.60;99.90
18297;DHT22;18066;52.106;5.534;2023-04-25T14:59:00;15.80;99.90
18297;DHT22;18066;52.106;5.534;2023-04-25T15:01:28;14.80;99.90
18297;DHT22;18066;52.106;5.534;2023-04-25T15:03:55;13.90;99.90
18297;DHT22;18066;52.106;5.534;2023-04-25T15:06:23;13.90;99.90
18297;DHT22;18066;52.106;5.534;2023-04-25T15:08:51;14.40;99.90
18297;DHT22;18066;52.106;5.534;2023-04-25T15:11:18;15.50;99.90
18297;DHT22;18066;52.106;5.534;2023-04-25T15:13:47;15.80;99.90
18297;DHT22;18066;52.106;5.534;2023-04-25T15:16:14;15.90;99.90
18297;DHT22;18066;52.106;5.534;2023-04-25T15:18:42;16.30;99.90
18297;DHT22;18066;52.106;5.534;2023-04-25T15:21:09;16.90;99.90
18297;DHT22;18066;52.106;5.534;2023-04-25T15:23:36;17.20;99.90
18297;DHT22;18066;52.106;5.534;2023-04-25T15:26:03;17.50;99.90
18297;DHT22;18066;52.106;5.534;2023-04-25T15:28:30;17.50;99.90
18297;DHT22;18066;52.106;5.534;2023-04-25T15:30:59;17.60;99.90
18297;DHT22;18066;52.106;5.534;2023-04-25T15:33:26;18.40;99.90
18297;DHT22;18066;52.106;5.534;2023-04-25T15:35:54;17.60;99.90
18297;DHT22;18066;52.106;5.534;2023-04-25T15:38:23;16.60;99.90
18297;DHT22;18066;52.106;5.534;2023-04-25T15:40:49;15.20;99.90
18297;DHT22;18066;52.106;5.534;2023-04-25T15:43:18;15.00;99.90